Impacts METAR Board
IDs:

KTPA - Tampa Intl Arpt, FL, US

Updated at: 0300 UTC 18 Jun 2019
Potential Impact None Slight Moderate High
Time 17/15Z 17/16Z 17/17Z 17/18Z 17/19Z 17/20Z 17/21Z 17/22Z 17/23Z 18/00Z 18/01Z 18/02Z 18/03Z
Temp84 85 90 76 84 84 85 84 80 77 77 77 78
Dewpt74 73 74 71 74 74 76 74 72 73 73 74 75
Altim30.05 30.05 30.04 30.03 30.01 30.00 30.00 30.01 30.03 30.02 30.01 30.02 30.04
VIS10 10 10 5 10 10 10 10 10 10 10 10 10
CIG250 250 250 35 100 130 100 70 26 8 -- -- 9
CoverBKNBKNBKNOVCBKNBKNBKNBKNBKNBKNSCTSCTBKN
FltCatVFRVFRVFRMVFRVFRVFRVFRVFRMVFRIFRVFRVFRIFR
WX-------RA BR--------TS--------
WDir1301501801900220190190901100140110
WSpd11 9 6 5 3 6 9 9 6 10 0 4 4
WGst-- -- -- -- -- -- -- -- 15 -- -- -- --
Raw hourly METARs
KTPA 171453Z 13011KT 10SM SCT020 BKN250 29/23 A3005 RMK AO2 SLP176 SCT V BKN T02890233 50005 $
KTPA 171553Z COR 15009KT 10SM SCT026 BKN250 29/23 A3005 RMK AO2 SLP176 SCT V BKN T02940228 $
KTPA 171653Z COR 18006KT 10SM SCT030TCU BKN250 32/23 A3004 RMK AO2 LTG DSNT SE SLP172 TCU E-S T03220233 $
KTPA 171753Z COR 19005KT 5SM R01L/1200V3000FT -RA BR BKN035CB BKN055 OVC120 24/22 A3003 RMK AO2 RAB22E29B34 SLP168 CB S-N MOV NW P0010 60010 T02440217 10322 20239 58008 $
KTPA 171853Z COR VRB03KT 10SM SCT035 BKN100 BKN250 29/23 A3001 RMK AO2 LTG DSNT N RAE14 SLP162 CB DSNT S-N P0006 T02890233 $
KTPA 171953Z 22006KT 10SM SCT036 BKN130 BKN250 29/23 A3000 RMK AO2 LTG DSNT N AND NE SLP159 CB DSNT NW-S T02890233 $
KTPA 172053Z COR 19009KT 10SM SCT032TCU BKN100 BKN220 29/24 A3000 RMK AO2 LTG DSNT N AND SE AND NW SLP159 CB DSNT N AND SE TCU N-SE AND SW VCSH N-E SHRA DSNT SE 60006 T02940244 56009 $
KTPA 172204Z 19009KT 10SM FEW033TCU BKN070 BKN200 29/23 A3001 RMK AO2 LTG DSNT NW-E TSE02 CB DSNT NW-E TCU NW-E T02890233 $
KTPA 172253Z COR 09006G15KT 10SM TS SCT012 BKN026CB BKN100 27/22 A3003 RMK AO2 LTG DSNT ALQDS TSE02B30E45B51 SLP168 OCNL LTGCG NW-E TS NW-E MOV SLOLY N CB ALQDS VCSH NW-SE T02670222 $
KTPA 180003Z 11010KT 10SM BKN008 BKN035 BKN190 25/23 A3002 RMK AO2 T02500228 $
KTPA 180053Z 00000KT 10SM FEW011 FEW032 SCT090 SCT250 25/23 A3001 RMK AO2 SLP161 TCU DSNT W T02500228 $
KTPA 180153Z 14004KT 10SM FEW028 SCT100 SCT250 25/23 A3002 RMK AO2 SLP166 T02500233 $
KTPA 180253Z 11004KT 10SM BKN009 26/24 A3004 RMK AO2 SLP172 T02560239 53006 $



Page loaded:  03:16 UTC  |   08:16 PM Pacific  |   09:16 PM Mountain  |   10:16 PM Central  |   11:16 PM Eastern

 

ADVISORIES

FORECASTS

FORECASTS

OBSERVATIONS

USER TOOLS

ABOUT US